Details for Delta Airlines at KSEA




Go Back


Latest METAR
Local Time

KSEA 241253Z 22013KT 10SM -RA OVC007 02/01 A2989 RMK AO2 PK WND 18026/1156 SLP132 P0000 T00220011

24/02/2018, 05:31:17

Description
Results
Delta Airlines Logo
Number of Pilots based at KSEA
0 Pilots Based here
Number of Delta Airlines Flights Departed from KSEA
1 Flights Departed
Number of Delta Airlines Flights Arrived at KSEA
1 Flights Arrived
Number of Delta Airlines Schedules Departing from KSEA
368 Schedules
Number of Delta Airlines Schedules Arriving at KSEA
380 Schedules
Number of Delta Airlines Schedules Departing from KSEA availible today
176 Schedules Today
Number of Delta Airlines Schedules Arriving at KSEA availible today
186 Schedules Today
Average Landing Rate at KSEA
-244 fpm
Delta Airlines Average Landing Rate at KSEA
-26 fpm
Total Fuel Purchased at KSEA by Delta Airlines
9,992.19 kgs / 22,028.78 lbs

Pilots Based at KSEA


Pilot ID
Pilot Name
Pilot Rank
No. of Flights
No. of Flying Hours
There are no pilots assigned to this hub!   Will you be the first?
Content